Time;durP1;ratioP1;P1;durP2;ratioP2;P2;SDS_P1;SDS_P2;PMS_P1;PMS_P2;Temp;Humidity;BMP_temperature;BMP_pressure;BME280_temperature;BME280_humidity;BME280_pressure;Samples;Min_cycle;Max_cycle;Signal;HPM_P1;HPM_P2
2022/07/10 00:01:20;;;;;;;1.17;1.08;;;;;;;22.91;47.18;101127.31;4878761;29;20060;-77
2022/07/10 00:03:49;;;;;;;1.38;1.25;;;;;;;22.93;47.81;101119.41;4870856;29;20052;-77
2022/07/10 00:06:17;;;;;;;1.92;1.58;;;;;;;22.90;47.40;101119.28;4880224;29;20056;-77
2022/07/10 00:08:46;;;;;;;3.17;1.42;;;;;;;22.84;47.02;101117.91;4880196;29;20057;-76
2022/07/10 00:11:13;;;;;;;0.93;0.93;;;;;;;22.78;47.20;101118.16;4879064;29;20126;-77
2022/07/10 00:13:41;;;;;;;1.70;1.30;;;;;;;22.64;47.66;101112.13;4880348;29;20056;-77
2022/07/10 00:16:09;;;;;;;4.53;1.17;;;;;;;22.60;47.87;101113.97;4880252;29;20404;-76
2022/07/10 00:18:37;;;;;;;2.95;1.20;;;;;;;22.58;47.92;101107.94;4879104;29;20053;-77
2022/07/10 00:21:06;;;;;;;1.58;1.10;;;;;;;22.58;47.81;101113.53;4878729;29;20049;-76
2022/07/10 00:23:34;;;;;;;2.15;1.33;;;;;;;22.52;47.69;101104.56;4878748;29;20049;-77
2022/07/10 00:26:02;;;;;;;2.70;0.93;;;;;;;22.50;47.84;101106.88;4879455;29;20404;-77
2022/07/10 00:28:30;;;;;;;1.88;1.40;;;;;;;22.48;47.32;101112.78;4879829;29;20519;-77
2022/07/10 00:30:58;;;;;;;1.65;1.00;;;;;;;22.46;47.75;101103.97;4879704;29;20071;-77
2022/07/10 00:33:27;;;;;;;1.05;1.02;;;;;;;22.36;47.42;101110.84;4879789;29;20063;-77
2022/07/10 00:35:55;;;;;;;0.85;0.80;;;;;;;22.23;47.44;101109.19;4879261;29;20060;-76
2022/07/10 00:38:23;;;;;;;0.80;0.75;;;;;;;22.21;47.76;101101.19;4879407;29;20405;-77
2022/07/10 00:40:51;;;;;;;1.30;0.98;;;;;;;22.15;48.18;101110.94;4879448;29;20055;-76
2022/07/10 00:43:19;;;;;;;3.70;1.10;;;;;;;22.13;47.87;101110.44;4879432;29;20052;-76
2022/07/10 00:45:48;;;;;;;2.65;1.20;;;;;;;22.14;47.73;101112.09;4879523;29;20045;-77
2022/07/10 00:48:16;;;;;;;0.80;0.80;;;;;;;22.33;47.79;101110.72;4879273;29;20060;-77
2022/07/10 00:50:46;;;;;;;1.45;1.00;;;;;;;22.23;47.80;101101.66;4879431;29;20060;-77
2022/07/10 00:53:14;;;;;;;1.17;1.08;;;;;;;22.13;48.60;101104.88;4879487;29;20045;-77
2022/07/10 00:55:43;;;;;;;0.70;0.70;;;;;;;22.08;48.38;101107.88;4879554;29;20064;-77
2022/07/10 00:58:12;;;;;;;1.17;1.08;;;;;;;22.06;48.93;101099.06;4879105;29;20496;-77
2022/07/10 01:00:41;;;;;;;1.33;1.23;;;;;;;22.04;48.86;101102.19;4879218;29;20068;-77
2022/07/10 01:03:08;;;;;;;1.75;1.08;;;;;;;21.94;49.07;101100.69;4879034;29;20049;-77
2022/07/10 01:05:37;;;;;;;1.95;1.23;;;;;;;22.12;48.26;101086.53;4877801;29;20412;-77
2022/07/10 01:08:05;;;;;;;1.88;1.20;;;;;;;22.08;48.36;101092.00;4879256;29;20053;-77
2022/07/10 01:10:33;;;;;;;0.85;0.85;;;;;;;21.95;48.64;101093.94;4879004;29;20057;-77
2022/07/10 01:13:02;;;;;;;1.15;1.05;;;;;;;21.95;49.07;101087.56;4878487;29;20492;-77
2022/07/10 01:15:32;;;;;;;1.90;1.20;;;;;;;21.93;48.36;101090.69;4879040;29;20502;-77
2022/07/10 01:18:01;;;;;;;1.23;1.10;;;;;;;21.86;48.86;101084.88;4878970;29;20404;-77
2022/07/10 01:20:32;;;;;;;1.23;1.17;;;;;;;21.78;50.82;101088.56;4878846;29;20065;-77
2022/07/10 01:23:01;;;;;;;1.20;1.20;;;;;;;21.78;49.32;101080.22;4876274;29;20041;-77
2022/07/10 01:25:29;;;;;;;1.00;0.88;;;;;;;21.71;49.27;101084.38;4878018;29;20057;-77
2022/07/10 01:27:58;;;;;;;2.42;1.08;;;;;;;21.68;49.65;101085.03;4878600;29;20041;-77
2022/07/10 01:30:26;;;;;;;1.20;1.10;;;;;;;21.61;49.83;101079.22;4873553;29;20045;-77
2022/07/10 01:32:54;;;;;;;1.20;1.10;;;;;;;21.55;50.25;101084.19;4879012;29;20060;-77
2022/07/10 01:35:22;;;;;;;1.75;1.65;;;;;;;21.53;50.09;101080.13;4878755;29;20060;-76
2022/07/10 01:37:50;;;;;;;1.02;0.95;;;;;;;21.61;49.61;101074.47;4878603;29;20503;-77
2022/07/10 01:40:18;;;;;;;1.10;0.85;;;;;;;21.64;49.57;101075.75;4878557;29;20068;-77
2022/07/10 01:42:46;;;;;;;4.50;1.50;;;;;;;21.64;49.52;101072.97;4878244;29;20408;-77
2022/07/10 01:45:16;;;;;;;0.60;0.60;;;;;;;21.59;50.17;101070.38;4878261;29;20049;-77
2022/07/10 01:47:44;;;;;;;1.33;1.00;;;;;;;21.51;49.64;101069.31;4878402;29;20052;-77
2022/07/10 01:50:12;;;;;;;1.25;0.90;;;;;;;21.46;50.17;101056.44;4878347;29;20382;-77
2022/07/10 01:52:40;;;;;;;1.00;1.00;;;;;;;21.44;49.89;101066.28;4877307;29;20400;-77
2022/07/10 01:55:08;;;;;;;1.38;1.27;;;;;;;21.50;49.68;101055.75;4878307;29;20052;-77
2022/07/10 01:57:36;;;;;;;1.50;1.15;;;;;;;21.54;49.71;101054.72;4878311;29;20041;-77
2022/07/10 02:00:05;;;;;;;1.63;1.00;;;;;;;21.52;49.97;101056.22;4878276;29;20053;-76
2022/07/10 02:02:39;;;;;;;1.10;1.10;;;;;;;21.48;49.93;101054.13;4874492;29;20052;-77
2022/07/10 02:05:07;;;;;;;1.63;1.00;;;;;;;21.43;50.50;101051.56;4875373;29;20056;-77
2022/07/10 02:07:37;;;;;;;2.75;1.38;;;;;;;21.38;50.76;101048.16;4878529;29;20064;-77
2022/07/10 02:10:05;;;;;;;1.08;1.08;;;;;;;21.38;50.88;101049.00;4877921;29;20053;-77
2022/07/10 02:12:33;;;;;;;1.25;1.00;;;;;;;21.35;51.30;101049.66;4878616;29;20056;-77
2022/07/10 02:15:01;;;;;;;1.15;1.13;;;;;;;21.35;50.98;101049.66;4877982;29;20056;-77
2022/07/10 02:17:30;;;;;;;1.25;1.10;;;;;;;21.29;51.16;101051.03;4878191;29;20045;-77
2022/07/10 02:19:58;;;;;;;1.67;1.35;;;;;;;21.24;51.27;101048.47;4877939;29;20068;-77
2022/07/10 02:22:26;;;;;;;1.08;1.05;;;;;;;21.14;51.77;101038.56;4878427;29;20053;-77
2022/07/10 02:24:53;;;;;;;1.10;1.00;;;;;;;21.07;52.00;101044.69;4871540;29;20053;-77
2022/07/10 02:27:22;;;;;;;1.27;1.20;;;;;;;21.06;52.15;101043.88;4881551;29;20037;-77
2022/07/10 02:29:50;;;;;;;2.45;0.95;;;;;;;21.11;51.81;101039.28;4882536;29;20048;-76
2022/07/10 02:32:18;;;;;;;1.45;1.30;;;;;;;21.06;51.85;101045.84;4881641;29;20045;-77
2022/07/10 02:34:46;;;;;;;1.33;1.23;;;;;;;21.04;52.65;101039.81;4881621;29;20045;-77
2022/07/10 02:37:14;;;;;;;2.05;1.30;;;;;;;21.01;52.61;101040.50;4881539;29;20060;-76
2022/07/10 02:39:41;;;;;;;2.42;1.10;;;;;;;21.07;52.01;101041.91;4881702;29;20052;-77
2022/07/10 02:42:09;;;;;;;1.73;1.25;;;;;;;21.06;52.24;101037.50;4881764;29;20060;-77
2022/07/10 02:44:37;;;;;;;2.03;1.33;;;;;;;20.96;52.70;101026.78;4880184;29;20041;-76
2022/07/10 02:47:05;;;;;;;4.75;1.10;;;;;;;20.93;52.63;101025.50;4881669;29;20052;-77
2022/07/10 02:49:33;;;;;;;0.82;0.82;;;;;;;21.02;52.15;101028.22;4881409;29;20049;-77
2022/07/10 02:52:01;;;;;;;1.13;1.02;;;;;;;21.02;52.64;101031.00;4881789;29;20051;-77
2022/07/10 02:54:29;;;;;;;2.35;1.30;;;;;;;21.02;52.20;101028.22;4873764;29;20409;-77
2022/07/10 02:56:57;;;;;;;0.90;0.90;;;;;;;21.02;52.11;101019.88;4871687;29;20045;-77
2022/07/10 02:59:24;;;;;;;1.30;1.20;;;;;;;21.02;52.00;101019.88;4874134;29;20408;-77
2022/07/10 03:01:52;;;;;;;3.45;1.40;;;;;;;20.99;52.37;101020.53;4880869;29;20061;-77
2022/07/10 03:04:20;;;;;;;1.20;1.10;;;;;;;21.02;52.65;101014.31;4881236;29;20037;-77
2022/07/10 03:06:48;;;;;;;2.03;1.15;;;;;;;21.14;52.33;101017.13;4881119;29;20060;-77
2022/07/10 03:09:16;;;;;;;1.30;1.20;;;;;;;21.07;52.92;101014.91;4879976;29;20493;-76
2022/07/10 03:11:44;;;;;;;3.55;1.27;;;;;;;20.91;53.30;101014.72;4881282;29;20419;-77
2022/07/10 03:14:12;;;;;;;1.52;0.90;;;;;;;20.90;53.60;101013.09;4881072;29;20051;-77
2022/07/10 03:16:40;;;;;;;3.22;1.00;;;;;;;20.88;53.65;101020.16;4881169;29;20056;-77
2022/07/10 03:19:08;;;;;;;1.40;1.30;;;;;;;20.85;53.89;101016.06;4880993;29;20040;-77
2022/07/10 03:21:36;;;;;;;3.08;1.17;;;;;;;20.71;54.74;101007.97;4880110;29;20068;-76
2022/07/10 03:24:05;;;;;;;4.07;1.00;;;;;;;20.57;55.07;101004.66;4880896;29;20060;-76
2022/07/10 03:26:33;;;;;;;1.30;1.20;;;;;;;20.68;54.87;101005.88;4880893;29;20060;-76
2022/07/10 03:29:00;;;;;;;1.20;1.10;;;;;;;20.63;54.69;101009.66;4881003;29;20045;-76
2022/07/10 03:31:28;;;;;;;2.05;1.10;;;;;;;20.66;54.80;101013.72;4880765;29;20053;-77
2022/07/10 03:33:56;;;;;;;1.40;1.00;;;;;;;20.66;54.77;101009.00;4880487;29;20064;-76
2022/07/10 03:36:24;;;;;;;2.03;1.20;;;;;;;20.60;54.36;101009.53;4880261;29;20068;-77
2022/07/10 03:38:52;;;;;;;1.70;1.60;;;;;;;20.48;54.76;101013.06;4880362;29;20041;-77
2022/07/10 03:41:20;;;;;;;2.05;1.40;;;;;;;20.33;55.04;101015.25;4880849;29;20049;-77
2022/07/10 03:43:48;;;;;;;1.98;1.05;;;;;;;20.25;54.92;101016.13;4880455;29;20502;-77
2022/07/10 03:46:16;;;;;;;1.77;1.10;;;;;;;20.21;55.16;101007.66;4880488;29;20056;-77
2022/07/10 03:48:44;;;;;;;1.00;0.90;;;;;;;20.26;54.78;101012.19;4880079;29;20127;-77
2022/07/10 03:51:12;;;;;;;4.63;1.42;;;;;;;20.28;54.67;101010.72;4893429;29;20044;-76
2022/07/10 03:53:40;;;;;;;1.20;1.10;;;;;;;20.20;55.58;101013.53;4898876;29;20056;-77
2022/07/10 03:56:08;;;;;;;2.90;1.35;;;;;;;20.36;54.66;101017.38;4878476;29;20489;-76
2022/07/10 03:58:36;;;;;;;1.40;1.05;;;;;;;20.35;55.18;101014.94;4879637;29;20052;-77
2022/07/10 04:01:04;;;;;;;1.48;1.30;;;;;;;20.25;54.78;100999.47;4879878;29;20057;-76
2022/07/10 04:03:32;;;;;;;1.02;0.90;;;;;;;20.24;55.19;101003.41;4872928;29;20404;-77
2022/07/10 04:06:00;;;;;;;1.17;1.08;;;;;;;20.20;55.08;101003.25;4880098;29;20049;-77
2022/07/10 04:08:27;;;;;;;1.40;1.30;;;;;;;20.34;54.69;101013.31;4880346;29;20489;-77
2022/07/10 04:10:55;;;;;;;2.45;1.35;;;;;;;20.39;54.32;101005.56;4879974;29;20056;-77
2022/07/10 04:13:23;;;;;;;1.42;1.27;;;;;;;20.40;55.00;101001.63;4867011;29;20073;-77
2022/07/10 04:15:51;;;;;;;1.38;1.15;;;;;;;20.34;54.62;101002.97;4880028;29;20045;-77
2022/07/10 04:18:19;;;;;;;1.80;1.35;;;;;;;20.28;55.18;100993.22;4880035;29;20049;-77
2022/07/10 04:20:47;;;;;;;1.05;0.98;;;;;;;20.24;55.60;100998.63;4879494;29;20053;-77
2022/07/10 04:23:15;;;;;;;3.80;1.35;;;;;;;20.25;55.07;100991.13;4879595;29;20049;-77
2022/07/10 04:25:43;;;;;;;2.55;1.27;;;;;;;20.29;54.84;100992.09;4879629;29;20056;-77
2022/07/10 04:28:11;;;;;;;1.30;1.10;;;;;;;20.32;55.17;100991.41;4878302;29;20053;-77
2022/07/10 04:30:39;;;;;;;1.67;1.30;;;;;;;20.21;55.13;100992.94;4879753;29;20052;-77
2022/07/10 04:33:07;;;;;;;2.90;1.13;;;;;;;20.33;54.79;100990.25;4879331;29;20049;-77
2022/07/10 04:35:35;;;;;;;1.05;1.05;;;;;;;20.43;54.21;100985.47;4879515;29;20064;-77
2022/07/10 04:38:02;;;;;;;1.52;1.42;;;;;;;20.40;54.50;100978.59;4878823;29;20376;-77
2022/07/10 04:40:30;;;;;;;1.13;1.02;;;;;;;20.35;54.69;100979.63;4878122;29;20053;-77
2022/07/10 04:42:58;;;;;;;1.75;1.17;;;;;;;20.48;53.65;100990.81;4879315;29;20056;-77
2022/07/10 04:45:26;;;;;;;1.52;1.42;;;;;;;20.72;53.27;100986.56;4879036;29;20057;-77
2022/07/10 04:47:54;;;;;;;1.30;1.20;;;;;;;20.66;53.23;100985.94;4878491;29;20048;-77
2022/07/10 04:50:22;;;;;;;0.98;0.98;;;;;;;20.80;53.23;100975.34;4879406;29;20060;-77
2022/07/10 04:52:50;;;;;;;2.60;0.90;;;;;;;20.73;53.26;100971.50;4879667;29;20052;-77
2022/07/10 04:55:18;;;;;;;2.50;0.90;;;;;;;20.75;53.20;100961.66;4869381;29;20413;-77
2022/07/10 04:57:46;;;;;;;1.55;1.08;;;;;;;20.92;52.81;100971.03;4865124;29;20061;-77
2022/07/10 05:00:15;;;;;;;2.47;0.95;;;;;;;21.00;52.94;100969.31;4879470;29;20119;-77
2022/07/10 05:02:43;;;;;;;2.75;1.08;;;;;;;21.12;52.44;100958.22;4877335;29;20424;-77
2022/07/10 05:05:11;;;;;;;1.02;1.02;;;;;;;21.10;52.70;100960.53;4878800;29;20052;-77
2022/07/10 05:07:39;;;;;;;1.33;1.08;;;;;;;21.16;52.23;100958.38;4876937;29;20535;-77
2022/07/10 05:10:07;;;;;;;1.38;1.27;;;;;;;21.34;51.68;100953.41;4879032;29;20057;-77
2022/07/10 05:12:35;;;;;;;1.30;1.13;;;;;;;21.61;50.79;100951.13;4878649;29;20607;-77
2022/07/10 05:15:03;;;;;;;4.00;1.05;;;;;;;21.68;50.47;100953.31;4877296;29;20049;-77
2022/07/10 05:17:31;;;;;;;2.28;1.02;;;;;;;21.93;49.31;100953.34;4878705;29;20041;-77
2022/07/10 05:19:59;;;;;;;0.98;0.90;;;;;;;22.09;48.29;100947.91;4878848;29;20051;-77
2022/07/10 05:22:30;;;;;;;1.15;1.05;;;;;;;22.32;47.23;100950.16;4878438;29;20404;-77
2022/07/10 05:24:58;;;;;;;2.55;1.40;;;;;;;22.49;46.99;100941.53;4878658;29;20056;-77
2022/07/10 05:27:26;;;;;;;1.77;1.00;;;;;;;22.59;46.44;100942.25;4878615;29;20056;-77
2022/07/10 05:29:54;;;;;;;1.15;1.10;;;;;;;22.88;46.30;100935.47;4878821;29;20511;-77
2022/07/10 05:32:22;;;;;;;1.25;0.82;;;;;;;22.79;46.99;100938.44;4878459;29;20060;-78
2022/07/10 05:34:50;;;;;;;0.85;0.85;;;;;;;23.18;45.38;100931.50;4878174;29;20063;-77
2022/07/10 05:37:18;;;;;;;0.95;0.80;;;;;;;23.43;44.63;100934.16;4878381;29;20500;-77
2022/07/10 05:39:46;;;;;;;2.15;0.70;;;;;;;23.59;44.24;100931.34;4877362;29;20514;-77
2022/07/10 05:42:13;;;;;;;2.17;1.00;;;;;;;23.64;44.20;100935.88;4876675;29;20064;-81
2022/07/10 05:46:09;;;;;;;3.83;1.13;;;;;;;24.25;42.77;100939.31;5071820;27;20408;-81
2022/07/10 05:48:38;;;;;;;1.27;1.00;;;;;;;24.35;42.15;100933.16;5069892;28;20055;-81
2022/07/10 05:51:07;;;;;;;1.17;1.08;;;;;;;24.47;42.32;100937.78;5083465;28;20036;-82
2022/07/10 05:53:55;;;;;;;0.70;0.70;;;;;;;24.69;41.55;100933.41;5089300;28;20032;-82
2022/07/10 05:56:23;;;;;;;1.25;1.13;;;;;;;24.69;42.24;100938.22;5088846;28;20041;-81
2022/07/10 05:58:51;;;;;;;1.15;0.95;;;;;;;24.74;42.62;100931.50;5089568;28;20513;-82
2022/07/10 06:01:43;;;;;;;0.90;0.90;;;;;;;24.82;42.53;100933.28;5086953;28;20044;-81
2022/07/10 06:04:12;;;;;;;2.30;0.88;;;;;;;24.94;41.82;100935.13;5070935;28;20037;-82
2022/07/10 06:06:40;;;;;;;1.08;1.00;;;;;;;24.99;42.07;100934.00;5079262;28;20597;-82
2022/07/10 06:09:16;;;;;;;0.85;0.70;;;;;;;25.15;41.67;100934.72;5071200;28;20089;-81
2022/07/10 06:11:54;;;;;;;1.73;1.10;;;;;;;25.29;40.79;100933.34;5074478;28;20060;-81
2022/07/10 06:14:22;;;;;;;0.70;0.70;;;;;;;25.25;40.70;100924.06;5097274;28;20055;-82
2022/07/10 06:16:50;;;;;;;0.70;0.70;;;;;;;25.42;40.64;100929.16;5083059;28;20040;-82
2022/07/10 06:19:18;;;;;;;0.80;0.80;;;;;;;25.52;40.12;100913.75;5084551;28;20048;-83
2022/07/10 06:21:46;;;;;;;1.27;0.95;;;;;;;25.66;39.90;100910.38;5081368;28;20493;-83
2022/07/10 06:24:14;;;;;;;0.60;0.60;;;;;;;25.89;39.89;100920.72;5090622;28;20051;-83
2022/07/10 06:26:42;;;;;;;1.13;0.93;;;;;;;25.92;39.73;100913.56;5081539;28;20048;-83
2022/07/10 06:29:10;;;;;;;2.65;0.88;;;;;;;26.08;39.33;100921.78;5103799;28;20051;-83
2022/07/10 06:31:38;;;;;;;0.85;0.82;;;;;;;26.13;39.37;100921.47;5081363;28;20033;-83
2022/07/10 06:34:06;;;;;;;1.00;0.90;;;;;;;26.12;39.47;100919.84;5075371;28;20040;-83
2022/07/10 06:36:34;;;;;;;1.33;0.85;;;;;;;26.17;39.16;100914.75;5084438;28;20029;-82
2022/07/10 06:39:02;;;;;;;0.80;0.80;;;;;;;26.21;38.84;100913.97;5077675;28;20045;-82
2022/07/10 06:41:30;;;;;;;0.98;0.90;;;;;;;26.37;39.00;100920.22;5076846;28;20041;-82
2022/07/10 06:44:00;;;;;;;1.10;0.98;;;;;;;26.43;38.38;100917.88;5079765;28;20055;-82
2022/07/10 06:46:28;;;;;;;0.90;0.75;;;;;;;26.51;38.87;100910.38;5075111;28;20049;-82
2022/07/10 06:48:56;;;;;;;1.83;0.98;;;;;;;26.73;38.25;100905.00;5081030;28;20044;-82
2022/07/10 06:51:24;;;;;;;0.85;0.85;;;;;;;26.80;37.73;100911.53;5079170;28;20047;-82
2022/07/10 06:53:52;;;;;;;2.05;0.93;;;;;;;26.88;37.85;100900.34;5080456;28;20040;-83
2022/07/10 06:56:20;;;;;;;0.73;0.73;;;;;;;26.99;37.61;100904.13;5078585;28;20420;-83
2022/07/10 06:58:48;;;;;;;3.15;1.30;;;;;;;26.99;37.36;100900.50;5070171;28;20032;-82
2022/07/10 07:01:21;;;;;;;1.40;1.23;;;;;;;27.10;37.04;100901.41;5064454;28;20044;-82
2022/07/10 07:03:49;;;;;;;1.00;1.00;;;;;;;27.22;36.86;100903.91;5053757;28;20048;-82
2022/07/10 07:06:17;;;;;;;1.42;0.90;;;;;;;27.32;36.37;100902.41;5053941;28;20526;-82
2022/07/10 07:08:45;;;;;;;0.90;0.63;;;;;;;27.32;34.74;100896.78;5065293;28;20040;-82
2022/07/10 07:11:16;;;;;;;0.57;0.57;;;;;;;27.41;34.03;100893.63;5069737;28;20037;-83
2022/07/10 07:13:55;;;;;;;1.02;0.80;;;;;;;27.50;34.06;100896.13;5070750;28;20479;-81
2022/07/10 07:16:37;;;;;;;1.15;0.80;;;;;;;27.58;33.97;100894.19;5060873;28;20048;-81
2022/07/10 07:19:05;;;;;;;0.70;0.70;;;;;;;27.60;34.10;100895.44;5054545;28;20052;-82
2022/07/10 07:24:20;;;;;;;0.70;0.70;;;;;;;27.64;32.59;100878.59;5068710;28;20044;-82
2022/07/10 07:26:48;;;;;;;1.33;0.73;;;;;;;27.73;30.86;100883.88;5061837;28;20051;-81
2022/07/10 07:29:17;;;;;;;1.67;0.68;;;;;;;27.80;30.11;100889.53;5066977;28;20045;-82
2022/07/10 07:31:45;;;;;;;0.60;0.60;;;;;;;27.92;31.14;100887.59;5065367;28;20040;-82
2022/07/10 07:34:13;;;;;;;0.65;0.47;;;;;;;28.02;31.18;100886.84;5059848;28;20037;-82
2022/07/10 07:36:41;;;;;;;0.50;0.50;;;;;;;28.11;31.25;100875.25;5062772;28;20051;-82
2022/07/10 07:39:09;;;;;;;0.40;0.40;;;;;;;28.13;31.38;100878.44;5062002;28;20044;-81
2022/07/10 07:41:37;;;;;;;0.85;0.50;;;;;;;28.13;31.29;100876.47;5064082;28;20040;-81
2022/07/10 07:44:05;;;;;;;2.05;0.90;;;;;;;28.10;31.02;100870.81;5069639;28;20053;-80
2022/07/10 07:46:33;;;;;;;2.80;0.60;;;;;;;28.24;30.40;100879.34;5071600;28;20056;-81
2022/07/10 07:49:01;;;;;;;0.63;0.63;;;;;;;28.16;29.72;100861.59;5068224;28;20048;-82
2022/07/10 07:51:29;;;;;;;1.08;0.57;;;;;;;28.23;29.39;100874.09;5064127;28;20044;-81
2022/07/10 07:53:57;;;;;;;0.60;0.60;;;;;;;28.23;29.59;100874.91;5071681;28;20044;-81
2022/07/10 07:56:25;;;;;;;0.70;0.55;;;;;;;28.34;29.21;100874.16;5083992;28;20049;-81
2022/07/10 07:58:53;;;;;;;0.70;0.50;;;;;;;28.43;28.11;100868.94;5088645;28;20048;-81
2022/07/10 08:01:21;;;;;;;1.02;0.50;;;;;;;28.39;29.47;100866.13;5070215;28;20037;-81
2022/07/10 08:03:50;;;;;;;0.57;0.50;;;;;;;28.41;28.12;100875.00;5069726;28;20052;-81
2022/07/10 08:06:36;;;;;;;0.50;0.32;;;;;;;28.44;26.54;100879.00;5065628;28;20056;-81
2022/07/10 08:09:04;;;;;;;1.15;0.50;;;;;;;28.52;28.82;100868.56;5069237;28;20044;-81
2022/07/10 08:11:32;;;;;;;2.25;0.55;;;;;;;28.52;27.31;100868.56;5070842;28;20036;-81
2022/07/10 08:14:00;;;;;;;1.33;0.32;;;;;;;28.56;27.39;100864.59;5071114;28;20048;-82
2022/07/10 08:16:28;;;;;;;1.02;0.50;;;;;;;28.70;27.45;100869.41;5072558;28;20045;-82
2022/07/10 08:18:56;;;;;;;0.30;0.30;;;;;;;28.68;27.65;100849.31;5062959;28;20040;-82
2022/07/10 08:21:24;;;;;;;0.98;0.60;;;;;;;28.83;27.28;100846.50;5072286;28;20045;-81
2022/07/10 08:23:53;;;;;;;0.47;0.45;;;;;;;28.99;27.22;100848.19;5072903;28;20048;-82
2022/07/10 08:26:21;;;;;;;0.63;0.60;;;;;;;29.01;27.27;100848.56;5072752;28;20048;-82
2022/07/10 08:28:49;;;;;;;0.98;0.63;;;;;;;28.95;26.85;100851.81;5072639;28;20084;-82
2022/07/10 08:31:17;;;;;;;0.52;0.50;;;;;;;29.10;27.29;100847.00;5072721;28;20036;-82
2022/07/10 08:33:46;;;;;;;0.63;0.60;;;;;;;29.14;27.39;100849.81;5072530;28;20068;-82
2022/07/10 08:36:14;;;;;;;0.32;0.32;;;;;;;29.19;27.41;100840.13;5068376;28;20047;-82
2022/07/10 08:39:04;;;;;;;0.65;0.65;;;;;;;29.11;27.16;100839.31;5064924;28;20052;-82
2022/07/10 08:41:34;;;;;;;4.22;0.73;;;;;;;29.23;27.83;100840.94;5064146;28;20043;-81
2022/07/10 08:44:03;;;;;;;0.90;0.40;;;;;;;29.19;27.29;100838.13;5061295;28;20075;-82
2022/07/10 08:46:31;;;;;;;1.95;0.88;;;;;;;29.04;26.71;100822.44;5063230;28;20052;-82
2022/07/10 08:49:00;;;;;;;1.65;0.70;;;;;;;29.16;28.15;100833.28;5070948;28;20067;-82
2022/07/10 08:52:01;;;;;;;0.85;0.50;;;;;;;29.18;27.88;100833.69;5068105;28;20049;-82
2022/07/10 08:54:31;;;;;;;2.05;0.60;;;;;;;29.17;27.37;100820.81;5066114;28;20059;-82
2022/07/10 08:57:02;;;;;;;1.92;0.57;;;;;;;29.23;27.77;100822.00;5072210;28;20107;-82
2022/07/10 08:59:30;;;;;;;0.60;0.60;;;;;;;29.29;26.99;100813.97;5072213;28;20056;-82
2022/07/10 09:01:59;;;;;;;0.60;0.60;;;;;;;29.40;27.67;100813.94;5070065;28;20052;-82
2022/07/10 09:04:28;;;;;;;2.85;0.73;;;;;;;29.37;27.22;100817.56;5070022;28;20045;-82
2022/07/10 09:06:58;;;;;;;1.40;0.60;;;;;;;29.51;27.47;100825.22;5068977;28;20048;-83
2022/07/10 09:09:54;;;;;;;1.30;0.60;;;;;;;29.57;27.65;100806.69;5062485;28;20053;-82
2022/07/10 09:12:23;;;;;;;1.42;0.60;;;;;;;29.40;27.64;100807.50;5059661;28;20036;-81
2022/07/10 09:14:51;;;;;;;2.28;0.80;;;;;;;29.47;27.62;100811.09;5068134;28;20044;-83
2022/07/10 09:17:20;;;;;;;1.13;0.68;;;;;;;29.57;27.45;100817.94;5068221;28;20047;-82
2022/07/10 09:19:48;;;;;;;0.52;0.52;;;;;;;29.69;27.63;100821.56;5067771;28;20479;-82
2022/07/10 09:22:16;;;;;;;0.90;0.70;;;;;;;29.74;27.23;100815.50;5066449;28;20047;-83
2022/07/10 09:24:46;;;;;;;0.73;0.57;;;;;;;29.75;27.30;100820.75;5069110;28;20395;-83
2022/07/10 09:27:15;;;;;;;1.02;0.77;;;;;;;29.83;27.45;100812.25;5065638;28;20503;-83
2022/07/10 09:29:51;;;;;;;0.90;0.52;;;;;;;29.90;26.97;100813.03;5083022;28;20052;-83
2022/07/10 09:32:19;;;;;;;0.60;0.57;;;;;;;29.96;27.13;100807.75;5063505;28;20047;-82
2022/07/10 09:34:49;;;;;;;1.38;0.80;;;;;;;30.09;27.55;100813.78;5067560;28;20391;-82
2022/07/10 09:37:28;;;;;;;1.58;0.88;;;;;;;30.08;27.48;100809.31;5063751;28;20053;-83
2022/07/10 09:40:03;;;;;;;1.58;0.50;;;;;;;30.12;27.97;100812.16;5057961;28;20063;-82
2022/07/10 09:42:39;;;;;;;0.60;0.60;;;;;;;30.19;27.63;100805.69;5063437;28;20502;-82
2022/07/10 09:45:13;;;;;;;0.63;0.63;;;;;;;30.27;28.38;100810.88;5067354;28;20044;-82
2022/07/10 09:48:00;;;;;;;2.60;0.90;;;;;;;30.12;27.43;100804.50;5065367;28;20044;-82
2022/07/10 09:50:33;;;;;;;0.68;0.68;;;;;;;30.38;28.42;100802.34;5058749;28;20056;-82
2022/07/10 09:53:12;;;;;;;1.20;0.90;;;;;;;30.31;27.84;100808.03;5071264;28;20037;-82
2022/07/10 09:55:42;;;;;;;0.73;0.73;;;;;;;30.22;28.20;100802.84;5071564;28;20049;-81
2022/07/10 09:58:10;;;;;;;0.73;0.73;;;;;;;30.27;28.45;100812.88;5070688;28;20399;-82
2022/07/10 10:00:45;;;;;;;2.10;0.68;;;;;;;30.19;28.14;100809.28;5071306;28;20040;-83
2022/07/10 10:03:16;;;;;;;0.98;0.80;;;;;;;30.45;27.89;100804.31;5067753;28;20403;-83
2022/07/10 10:05:55;;;;;;;0.70;0.65;;;;;;;30.63;28.28;100795.72;5061074;28;20053;-83
2022/07/10 10:08:36;;;;;;;1.05;0.60;;;;;;;30.74;28.02;100790.00;5052832;28;20406;-84
2022/07/10 10:11:08;;;;;;;0.60;0.50;;;;;;;30.62;28.22;100787.66;5051885;28;20414;-83
2022/07/10 10:13:43;;;;;;;0.80;0.60;;;;;;;30.73;27.56;100787.63;5052277;28;20399;-84
2022/07/10 10:16:12;;;;;;;0.68;0.63;;;;;;;30.74;27.57;100781.53;5051485;28;20041;-84
2022/07/10 10:21:34;;;;;;;1.30;0.80;;;;;;;30.66;27.78;100779.97;5050130;28;20044;-82
2022/07/10 10:24:02;;;;;;;0.93;0.70;;;;;;;30.47;27.32;100776.47;5061854;28;20045;-83
2022/07/10 10:26:30;;;;;;;0.60;0.60;;;;;;;30.68;28.25;100771.88;5065508;28;20055;-83
2022/07/10 10:29:01;;;;;;;0.75;0.75;;;;;;;30.83;27.76;100767.75;5061551;28;20048;-82
2022/07/10 10:31:30;;;;;;;1.63;0.80;;;;;;;30.91;27.70;100760.03;5069463;28;20048;-83
2022/07/10 10:34:00;;;;;;;0.50;0.50;;;;;;;30.77;26.87;100771.44;5068447;28;20060;-82
2022/07/10 10:36:41;;;;;;;0.85;0.68;;;;;;;30.87;27.35;100752.81;5059393;28;20056;-84
2022/07/10 10:39:13;;;;;;;1.25;0.75;;;;;;;30.94;27.30;100752.75;5068560;28;20041;-83
2022/07/10 10:41:54;;;;;;;0.63;0.63;;;;;;;30.96;26.98;100745.44;5071790;28;20051;-83
2022/07/10 10:44:31;;;;;;;1.05;0.70;;;;;;;30.92;26.53;100738.22;5067867;28;20048;-83
2022/07/10 10:47:05;;;;;;;1.13;0.70;;;;;;;31.00;28.04;100747.44;5070390;28;20071;-83
2022/07/10 10:49:53;;;;;;;1.35;0.88;;;;;;;31.11;27.64;100734.81;5068397;28;20507;-83
2022/07/10 10:52:24;;;;;;;1.52;0.85;;;;;;;31.06;27.37;100734.44;5074525;28;20041;-83
2022/07/10 10:54:59;;;;;;;0.70;0.70;;;;;;;31.18;27.72;100728.25;5073883;28;20052;-83
2022/07/10 10:57:39;;;;;;;1.95;1.00;;;;;;;31.41;27.66;100729.66;5068852;28;20041;-83
2022/07/10 11:00:08;;;;;;;1.23;0.90;;;;;;;31.56;26.79;100729.50;5069989;28;20508;-84
2022/07/10 11:02:39;;;;;;;0.70;0.70;;;;;;;31.71;27.03;100713.16;5073532;28;20045;-83
2022/07/10 11:05:20;;;;;;;3.33;0.82;;;;;;;31.84;27.20;100717.03;5084192;28;20503;-83
2022/07/10 11:07:58;;;;;;;0.60;0.60;;;;;;;31.88;26.91;100719.81;5070582;28;20056;-83
2022/07/10 11:10:43;;;;;;;1.17;0.80;;;;;;;31.99;26.87;100711.16;5060856;28;20483;-83
2022/07/10 11:13:17;;;;;;;1.40;0.90;;;;;;;32.07;25.80;100707.03;5071744;28;20044;-84
2022/07/10 11:15:47;;;;;;;0.85;0.60;;;;;;;32.07;24.78;100707.03;5063730;28;20118;-84
2022/07/10 11:18:22;;;;;;;0.60;0.60;;;;;;;32.16;24.71;100714.97;5064518;28;20499;-83
2022/07/10 11:20:53;;;;;;;1.30;0.80;;;;;;;32.21;24.84;100705.19;5059134;28;20503;-83
2022/07/10 11:23:58;;;;;;;0.73;0.73;;;;;;;32.18;25.03;100702.00;5071251;28;20055;-84
2022/07/10 11:26:49;;;;;;;0.70;0.70;;;;;;;32.35;25.36;100690.81;5065882;28;20111;-83
2022/07/10 11:29:18;;;;;;;0.52;0.52;;;;;;;32.56;25.21;100686.84;5054820;28;20534;-83
2022/07/10 11:31:53;;;;;;;0.68;0.68;;;;;;;32.56;24.48;100697.38;5063057;28;20045;-83
2022/07/10 11:34:22;;;;;;;0.80;0.80;;;;;;;32.67;24.90;100694.34;5059626;28;20060;-83
2022/07/10 11:36:50;;;;;;;0.68;0.68;;;;;;;32.78;24.93;100699.84;5062166;28;20045;-83
2022/07/10 11:39:18;;;;;;;0.85;0.85;;;;;;;32.70;24.60;100702.00;5065006;28;20380;-83
2022/07/10 11:41:46;;;;;;;0.68;0.68;;;;;;;32.77;25.26;100695.38;5060798;28;20045;-83
2022/07/10 11:44:16;;;;;;;1.10;1.00;;;;;;;32.80;25.70;100691.72;5066041;28;20148;-83